Time;durP1;ratioP1;P1;durP2;ratioP2;P2;SDS_P1;SDS_P2;PMS_P1;PMS_P2;Temp;Humidity;BMP_temperature;BMP_pressure;BME280_temperature;BME280_humidity;BME280_pressure;Samples;Min_cycle;Max_cycle;Signal;HPM_P1;HPM_P2
2021/12/29 00:02:20;;;;;;;2.05;1.85;;;19.40;70.50;;;;;;5123307;28;20024;-42
2021/12/29 00:04:46;;;;;;;2.20;2.00;;;19.40;70.40;;;;;;5123518;28;20389;-42
2021/12/29 00:07:12;;;;;;;1.95;1.60;;;19.40;70.30;;;;;;5123075;28;20488;-43
2021/12/29 00:09:40;;;;;;;2.30;1.90;;;19.40;70.20;;;;;;5113793;28;20123;-42
2021/12/29 00:12:09;;;;;;;;;;;19.40;70.30;;;;;;5109585;28;20026;-42
2021/12/29 00:14:35;;;;;;;2.40;1.88;;;19.40;70.20;;;;;;5122830;28;19915;-42
2021/12/29 00:17:02;;;;;;;2.15;1.83;;;19.40;70.10;;;;;;5122843;28;20058;-42
2021/12/29 00:19:28;;;;;;;2.97;1.95;;;19.40;70.10;;;;;;5126746;28;20374;-42
2021/12/29 00:21:54;;;;;;;2.10;1.90;;;19.40;70.00;;;;;;5127270;28;20031;-42
2021/12/29 00:24:20;;;;;;;2.17;1.98;;;19.40;70.10;;;;;;5127015;28;20020;-43
2021/12/29 00:26:46;;;;;;;4.10;1.95;;;19.40;70.00;;;;;;5127011;28;20028;-43
2021/12/29 00:29:14;;;;;;;4.18;2.60;;;19.40;70.00;;;;;;5126733;28;20039;-43
2021/12/29 00:31:39;;;;;;;;;;;19.40;70.00;;;;;;5127408;28;20034;-43
2021/12/29 00:34:06;;;;;;;3.85;2.58;;;19.40;70.10;;;;;;5126931;28;19967;-45
2021/12/29 00:36:32;;;;;;;2.58;2.03;;;19.40;70.10;;;;;;5114617;28;20039;-43
2021/12/29 00:38:58;;;;;;;2.53;2.20;;;19.40;70.30;;;;;;5109110;28;20031;-42
2021/12/29 00:41:24;;;;;;;2.35;2.15;;;19.40;70.20;;;;;;5126819;28;20035;-45
2021/12/29 00:43:50;;;;;;;2.60;2.20;;;19.40;70.20;;;;;;5126885;28;20019;-43
2021/12/29 00:46:17;;;;;;;2.33;2.00;;;19.40;70.30;;;;;;5126613;28;20030;-42
2021/12/29 00:48:44;;;;;;;;;;;19.40;70.30;;;;;;5126871;28;20055;-43
2021/12/29 00:51:11;;;;;;;3.13;2.45;;;19.40;70.20;;;;;;5126406;28;19908;-42
2021/12/29 00:53:37;;;;;;;4.00;2.70;;;19.40;70.10;;;;;;5126704;28;20016;-42
2021/12/29 00:56:03;;;;;;;3.08;2.45;;;19.40;70.10;;;;;;5126522;28;20480;-44
2021/12/29 00:58:29;;;;;;;3.87;2.43;;;19.40;70.00;;;;;;5126260;28;20023;-43
2021/12/29 01:00:56;;;;;;;3.67;2.20;;;19.40;70.00;;;;;;5126157;28;20042;-42
2021/12/29 01:03:22;;;;;;;3.30;2.08;;;19.40;70.00;;;;;;5126418;28;20028;-43
2021/12/29 01:05:48;;;;;;;2.75;2.20;;;19.40;69.80;;;;;;5126313;28;20031;-42
2021/12/29 01:08:15;;;;;;;3.47;2.33;;;19.40;69.80;;;;;;5125430;28;20047;-43
2021/12/29 01:10:41;;;;;;;3.40;2.63;;;19.40;69.70;;;;;;5106523;28;20039;-43
2021/12/29 01:13:10;;;;;;;3.35;2.72;;;19.40;69.70;;;;;;5105866;28;20510;-42
2021/12/29 01:18:28;;;;;;;2.55;2.17;;;19.40;69.80;;;;;;5097723;28;20484;-43
2021/12/29 01:20:54;;;;;;;2.20;2.00;;;19.40;69.90;;;;;;5125844;28;20053;-44
2021/12/29 01:23:20;;;;;;;3.58;2.50;;;19.40;69.90;;;;;;5126057;28;20171;-43
2021/12/29 01:25:46;;;;;;;4.25;2.75;;;19.40;69.70;;;;;;5126143;28;20510;-42
2021/12/29 01:28:13;;;;;;;3.50;2.40;;;19.40;69.60;;;;;;5125383;28;20043;-43
2021/12/29 01:30:39;;;;;;;4.97;2.22;;;19.40;69.60;;;;;;5124844;28;20023;-45
2021/12/29 01:33:08;;;;;;;2.55;2.35;;;19.40;69.60;;;;;;5125414;28;20027;-42
2021/12/29 01:35:34;;;;;;;3.60;2.47;;;19.40;70.30;;;;;;5125793;28;20024;-42
2021/12/29 01:38:01;;;;;;;4.05;2.55;;;19.40;69.60;;;;;;5124265;28;20542;-44
2021/12/29 01:40:27;;;;;;;4.90;2.63;;;19.40;69.60;;;;;;5124426;28;20084;-42
2021/12/29 01:42:53;;;;;;;4.78;2.65;;;19.40;69.60;;;;;;5125736;28;20031;-42
2021/12/29 01:45:19;;;;;;;2.70;2.47;;;19.40;69.60;;;;;;5125171;28;20027;-42
2021/12/29 01:47:46;;;;;;;4.18;2.55;;;19.40;69.50;;;;;;5125237;28;20496;-42
2021/12/29 01:50:12;;;;;;;4.78;2.80;;;19.40;69.60;;;;;;5118406;28;20079;-42
2021/12/29 01:52:40;;;;;;;6.00;2.70;;;19.40;69.60;;;;;;5125301;28;20054;-42
2021/12/29 01:55:08;;;;;;;3.47;2.55;;;19.40;69.60;;;;;;5125347;28;20098;-44
2021/12/29 01:57:34;;;;;;;4.10;2.85;;;19.40;69.50;;;;;;5125430;28;20091;-42
2021/12/29 02:00:01;;;;;;;3.47;2.20;;;19.30;69.30;;;;;;5124471;28;20020;-42
2021/12/29 02:02:27;;;;;;;3.85;2.70;;;19.30;69.30;;;;;;5124910;28;20685;-45
2021/12/29 02:04:53;;;;;;;4.05;2.70;;;19.30;69.20;;;;;;5125204;28;20027;-43
2021/12/29 02:07:19;;;;;;;3.92;2.20;;;19.30;69.20;;;;;;5124928;28;20043;-43
2021/12/29 02:09:45;;;;;;;3.70;2.70;;;19.30;69.20;;;;;;5114000;28;20024;-43
2021/12/29 02:12:11;;;;;;;4.80;2.88;;;19.30;69.20;;;;;;5104590;28;20043;-42
2021/12/29 02:14:37;;;;;;;4.13;2.80;;;19.30;69.20;;;;;;5104412;28;20041;-42
2021/12/29 02:17:03;;;;;;;3.83;2.53;;;19.30;69.20;;;;;;5104269;28;20050;-45
2021/12/29 02:19:29;;;;;;;3.97;2.60;;;19.30;69.20;;;;;;5116754;28;20039;-42
2021/12/29 02:22:05;;;;;;;3.58;2.42;;;19.30;69.20;;;;;;5124634;28;20027;-42
2021/12/29 02:24:40;;;;;;;4.80;2.72;;;19.30;69.10;;;;;;5124897;28;20092;-42
2021/12/29 02:27:06;;;;;;;3.55;2.50;;;19.30;69.10;;;;;;5124448;28;20022;-43
2021/12/29 02:29:33;;;;;;;4.60;2.80;;;19.30;69.10;;;;;;5124310;28;20110;-44
2021/12/29 02:31:59;;;;;;;3.63;2.90;;;19.30;69.10;;;;;;5124305;28;20035;-43
2021/12/29 02:34:25;;;;;;;3.33;2.60;;;19.30;69.00;;;;;;5124428;28;20028;-42
2021/12/29 02:36:51;;;;;;;3.65;2.60;;;19.30;69.00;;;;;;5109279;28;20082;-43
2021/12/29 02:39:20;;;;;;;4.30;3.00;;;19.30;69.00;;;;;;5109344;28;20027;-45
2021/12/29 02:41:53;;;;;;;4.35;2.60;;;19.20;68.90;;;;;;5123402;28;20016;-42
2021/12/29 02:44:26;;;;;;;3.08;2.78;;;19.20;69.00;;;;;;5123989;28;20555;-43
2021/12/29 02:46:53;;;;;;;3.88;2.67;;;19.20;69.00;;;;;;5124149;28;20027;-44
2021/12/29 02:49:19;;;;;;;2.97;2.65;;;19.20;69.00;;;;;;5116809;28;20135;-42
2021/12/29 02:51:45;;;;;;;3.35;2.30;;;19.20;69.00;;;;;;5123960;28;20044;-42
2021/12/29 02:54:12;;;;;;;2.08;1.73;;;19.20;68.90;;;;;;5124106;28;20695;-42
2021/12/29 02:56:38;;;;;;;4.20;2.42;;;19.20;68.90;;;;;;5124041;28;20853;-42
2021/12/29 02:59:04;;;;;;;3.08;2.63;;;19.20;69.00;;;;;;5123756;28;20031;-42
2021/12/29 03:01:30;;;;;;;4.38;2.45;;;19.20;68.90;;;;;;5123407;28;20036;-42
2021/12/29 03:03:57;;;;;;;4.90;2.80;;;19.10;68.80;;;;;;5124067;28;20100;-44
2021/12/29 03:06:24;;;;;;;3.58;2.38;;;19.20;68.90;;;;;;5117921;28;20052;-42
2021/12/29 03:08:50;;;;;;;4.90;2.30;;;19.20;68.80;;;;;;5120930;28;20129;-42
2021/12/29 03:11:16;;;;;;;3.33;2.63;;;19.10;68.80;;;;;;5103172;28;20061;-42
2021/12/29 03:13:42;;;;;;;3.67;2.42;;;19.10;68.80;;;;;;5103384;28;20028;-42
2021/12/29 03:16:09;;;;;;;3.80;2.50;;;19.10;68.80;;;;;;5117424;28;20035;-42
2021/12/29 03:18:35;;;;;;;2.57;2.37;;;19.10;68.80;;;;;;5123755;28;20481;-42
2021/12/29 03:21:01;;;;;;;3.70;2.50;;;19.10;68.80;;;;;;5123267;28;20023;-42
2021/12/29 03:23:27;;;;;;;3.45;2.50;;;19.10;68.70;;;;;;5123454;28;20027;-42
2021/12/29 03:25:53;;;;;;;3.75;2.65;;;19.10;68.70;;;;;;5123374;28;20023;-42
2021/12/29 03:28:21;;;;;;;3.20;2.30;;;19.10;68.70;;;;;;5123394;28;20727;-42
2021/12/29 03:30:50;;;;;;;3.53;2.67;;;19.10;68.80;;;;;;5122874;28;20051;-43
2021/12/29 03:33:16;;;;;;;3.60;2.75;;;19.10;68.70;;;;;;5123444;28;20031;-42
2021/12/29 03:35:46;;;;;;;4.05;2.45;;;19.10;68.70;;;;;;5123015;28;20061;-43
2021/12/29 03:38:15;;;;;;;3.30;2.40;;;19.00;68.60;;;;;;5123450;28;20033;-43
2021/12/29 03:40:41;;;;;;;2.83;2.50;;;19.00;68.60;;;;;;5121696;28;20047;-42
2021/12/29 03:43:08;;;;;;;4.00;2.50;;;19.00;68.70;;;;;;5123374;28;20126;-42
2021/12/29 03:45:34;;;;;;;2.88;2.20;;;19.00;68.70;;;;;;5123073;28;20105;-42
2021/12/29 03:48:00;;;;;;;4.25;2.65;;;19.00;68.60;;;;;;5123103;28;20127;-42
2021/12/29 03:50:27;;;;;;;3.38;2.63;;;19.00;68.60;;;;;;5122913;28;20062;-42
2021/12/29 03:52:53;;;;;;;2.70;2.25;;;19.00;68.60;;;;;;5124508;28;20047;-42
2021/12/29 03:55:19;;;;;;;3.15;2.40;;;19.00;68.60;;;;;;5129989;27;20028;-43
2021/12/29 03:57:45;;;;;;;3.22;2.28;;;19.00;68.60;;;;;;5129980;27;20028;-42
2021/12/29 04:00:13;;;;;;;2.75;2.50;;;19.00;68.60;;;;;;5129339;27;20047;-42
2021/12/29 04:02:39;;;;;;;4.75;2.33;;;19.00;68.60;;;;;;5129739;27;20046;-43
2021/12/29 04:05:06;;;;;;;3.20;2.60;;;18.90;68.50;;;;;;5130096;27;20027;-42
2021/12/29 04:07:32;;;;;;;2.83;2.27;;;18.90;68.50;;;;;;5128974;28;20043;-42
2021/12/29 04:09:58;;;;;;;2.85;2.38;;;18.90;68.50;;;;;;5128343;27;20279;-43
2021/12/29 04:12:25;;;;;;;2.80;2.50;;;18.90;68.50;;;;;;5129432;27;20038;-42
2021/12/29 04:14:51;;;;;;;3.17;2.45;;;18.90;68.50;;;;;;5129485;27;20027;-42
2021/12/29 04:17:18;;;;;;;2.78;2.17;;;18.90;68.50;;;;;;5129724;27;20027;-42
2021/12/29 04:22:30;;;;;;;3.60;2.40;;;18.90;68.50;;;;;;5129816;28;20045;-42
2021/12/29 04:24:56;;;;;;;2.47;2.28;;;18.90;68.50;;;;;;5129653;27;20038;-43
2021/12/29 04:27:24;;;;;;;3.35;1.90;;;18.80;68.40;;;;;;5129465;27;21968;-42
2021/12/29 04:29:50;;;;;;;2.72;2.10;;;18.80;68.40;;;;;;5129421;27;20034;-43
2021/12/29 04:32:16;;;;;;;3.15;2.45;;;18.80;68.50;;;;;;5129294;27;20045;-42
2021/12/29 04:34:42;;;;;;;3.67;2.38;;;18.80;68.40;;;;;;5129466;28;20408;-42
2021/12/29 04:37:08;;;;;;;2.55;2.33;;;18.90;68.50;;;;;;5129284;27;20023;-43
2021/12/29 04:39:35;;;;;;;2.53;2.17;;;18.80;68.40;;;;;;5128616;27;20766;-42
2021/12/29 04:42:01;;;;;;;2.70;2.22;;;18.80;68.50;;;;;;5128910;27;20082;-42
2021/12/29 04:44:27;;;;;;;3.00;2.40;;;18.80;68.40;;;;;;5129439;27;20024;-42
2021/12/29 04:46:55;;;;;;;3.25;2.50;;;18.80;68.50;;;;;;5129219;27;20035;-42
2021/12/29 04:49:28;;;;;;;3.58;2.55;;;18.80;68.50;;;;;;5129131;27;20091;-43
2021/12/29 04:52:03;;;;;;;3.05;2.15;;;18.80;68.40;;;;;;5128905;27;20058;-42
2021/12/29 04:54:30;;;;;;;2.63;2.22;;;18.80;68.40;;;;;;5129318;27;20031;-42
2021/12/29 04:56:56;;;;;;;3.22;2.40;;;18.80;68.40;;;;;;5129368;27;20059;-42
2021/12/29 04:59:23;;;;;;;4.80;2.20;;;18.70;68.30;;;;;;5129336;27;20774;-42
2021/12/29 05:01:49;;;;;;;2.67;2.30;;;18.70;68.40;;;;;;5128738;27;20027;-42
2021/12/29 05:04:31;;;;;;;3.50;2.33;;;18.70;68.40;;;;;;5127392;27;20030;-43
2021/12/29 05:09:42;;;;;;;2.20;2.00;;;18.70;68.30;;;;;;5124731;28;20084;-42
2021/12/29 05:12:08;;;;;;;2.60;2.35;;;18.70;68.30;;;;;;5125194;27;20031;-42
2021/12/29 05:14:35;;;;;;;2.85;2.38;;;18.70;68.40;;;;;;5125983;28;20050;-42
2021/12/29 05:17:01;;;;;;;2.90;2.23;;;18.70;68.40;;;;;;5125769;28;20034;-43
2021/12/29 05:19:27;;;;;;;3.90;2.30;;;18.70;68.40;;;;;;5125614;28;20027;-43
2021/12/29 05:21:54;;;;;;;2.90;2.05;;;18.70;68.40;;;;;;5125439;28;20263;-42
2021/12/29 05:24:20;;;;;;;2.72;2.25;;;18.70;68.40;;;;;;5125530;28;20027;-41
2021/12/29 05:26:46;;;;;;;3.17;2.40;;;18.70;68.40;;;;;;5125830;28;20108;-42
2021/12/29 05:29:12;;;;;;;3.65;2.38;;;18.70;68.30;;;;;;5125495;28;20043;-42
2021/12/29 05:31:38;;;;;;;2.50;2.15;;;18.70;68.30;;;;;;5124944;28;20039;-42
2021/12/29 05:34:04;;;;;;;2.45;2.05;;;18.60;68.20;;;;;;5125100;28;20107;-43
2021/12/29 05:36:30;;;;;;;3.15;2.28;;;18.60;68.20;;;;;;5125506;28;20490;-42
2021/12/29 05:38:57;;;;;;;3.15;2.28;;;18.60;68.30;;;;;;5124362;28;20054;-44
2021/12/29 05:41:23;;;;;;;2.60;1.80;;;18.60;68.20;;;;;;5125151;28;20053;-42
2021/12/29 05:43:49;;;;;;;2.55;2.35;;;18.60;68.10;;;;;;5125345;28;20992;-42
2021/12/29 05:46:16;;;;;;;2.17;1.95;;;18.60;68.10;;;;;;5125036;28;20488;-44
2021/12/29 05:48:42;;;;;;;3.20;2.30;;;18.60;68.20;;;;;;5125031;28;20085;-42
2021/12/29 05:51:11;;;;;;;4.22;2.25;;;18.60;68.10;;;;;;5124840;28;20036;-43
2021/12/29 05:53:39;;;;;;;2.83;2.20;;;18.60;68.10;;;;;;5125079;28;20051;-42
2021/12/29 05:56:05;;;;;;;2.80;2.30;;;18.60;68.10;;;;;;5124946;28;20019;-42
2021/12/29 05:58:31;;;;;;;1.67;1.45;;;18.60;68.10;;;;;;5125052;27;20031;-42
2021/12/29 06:00:58;;;;;;;3.45;2.13;;;18.60;68.10;;;;;;5124784;28;20111;-44
2021/12/29 06:03:24;;;;;;;3.72;2.08;;;18.60;68.10;;;;;;5124630;28;20062;-44
2021/12/29 06:05:50;;;;;;;2.85;2.10;;;18.50;68.10;;;;;;5124624;28;20083;-43
2021/12/29 06:08:16;;;;;;;2.72;2.08;;;18.50;68.10;;;;;;5124939;28;20058;-42
2021/12/29 06:10:42;;;;;;;2.60;2.05;;;18.50;68.10;;;;;;5120240;28;20031;-42
2021/12/29 06:13:08;;;;;;;2.25;1.75;;;18.50;68.10;;;;;;5124741;28;20053;-43
2021/12/29 06:15:34;;;;;;;2.95;2.58;;;18.50;68.10;;;;;;5123844;28;20019;-42
2021/12/29 06:18:00;;;;;;;2.17;1.85;;;18.60;68.10;;;;;;5124342;28;20027;-45
2021/12/29 06:20:26;;;;;;;3.17;2.05;;;18.50;68.10;;;;;;5124690;28;20024;-41
2021/12/29 06:22:52;;;;;;;2.92;1.88;;;18.60;68.10;;;;;;5124491;28;20068;-42
2021/12/29 06:25:19;;;;;;;2.38;1.90;;;18.60;68.10;;;;;;5124457;28;20031;-41
2021/12/29 06:27:45;;;;;;;2.65;1.70;;;18.50;68.10;;;;;;5124551;28;20110;-43
2021/12/29 06:30:13;;;;;;;2.95;2.05;;;18.50;68.10;;;;;;5124117;28;20023;-42
2021/12/29 06:32:39;;;;;;;2.95;2.00;;;18.50;68.10;;;;;;5124384;28;20051;-42
2021/12/29 06:35:06;;;;;;;1.98;1.73;;;18.50;68.10;;;;;;5124014;28;20046;-42
2021/12/29 06:37:32;;;;;;;2.15;1.95;;;18.50;68.70;;;;;;5103921;28;20055;-43
2021/12/29 06:39:58;;;;;;;2.27;1.77;;;18.50;68.10;;;;;;5115310;28;20038;-44
2021/12/29 06:42:25;;;;;;;3.20;1.90;;;18.50;68.10;;;;;;5123848;28;20037;-42
2021/12/29 06:44:51;;;;;;;2.63;2.08;;;18.50;68.20;;;;;;5124004;28;20033;-42
2021/12/29 06:47:17;;;;;;;2.80;2.05;;;18.50;68.20;;;;;;5123771;27;20027;-42
2021/12/29 06:49:44;;;;;;;2.80;2.00;;;18.50;68.10;;;;;;5123918;28;20035;-42
2021/12/29 06:52:10;;;;;;;3.17;2.00;;;18.50;68.10;;;;;;5123877;28;20127;-41
2021/12/29 06:54:36;;;;;;;2.30;1.73;;;18.50;68.10;;;;;;5123822;28;20396;-42
2021/12/29 06:57:03;;;;;;;2.38;2.00;;;18.50;68.10;;;;;;5123980;28;20026;-42
2021/12/29 06:59:29;;;;;;;1.92;1.67;;;18.50;68.20;;;;;;5123695;28;20023;-43
2021/12/29 07:01:55;;;;;;;2.22;1.83;;;18.50;68.20;;;;;;5123259;28;20035;-42
2021/12/29 07:04:23;;;;;;;2.40;1.80;;;18.50;68.20;;;;;;5123770;28;20028;-42
2021/12/29 07:06:52;;;;;;;3.42;2.03;;;18.50;68.10;;;;;;5108914;28;20039;-42
2021/12/29 07:09:19;;;;;;;2.67;1.77;;;18.50;68.10;;;;;;5107856;28;20039;-42
2021/12/29 07:11:45;;;;;;;2.13;1.63;;;18.50;68.90;;;;;;5123700;28;20028;-42
2021/12/29 07:14:11;;;;;;;2.30;1.85;;;18.50;68.30;;;;;;5122170;28;20027;-42
2021/12/29 07:16:44;;;;;;;3.40;1.90;;;18.40;68.20;;;;;;5123331;28;20114;-42
2021/12/29 07:19:10;;;;;;;3.00;1.90;;;18.40;68.20;;;;;;5123438;28;20024;-41
2021/12/29 07:21:37;;;;;;;1.63;1.52;;;18.50;68.30;;;;;;5123664;28;20027;-42
2021/12/29 07:24:03;;;;;;;2.10;1.90;;;18.40;68.20;;;;;;5123452;28;20164;-43
2021/12/29 07:26:29;;;;;;;2.60;2.15;;;18.40;68.20;;;;;;5123219;28;20031;-42
2021/12/29 07:28:56;;;;;;;2.22;1.70;;;18.40;68.20;;;;;;5122780;28;20581;-42
2021/12/29 07:31:22;;;;;;;2.08;1.80;;;18.50;68.20;;;;;;5123151;28;20051;-43
2021/12/29 07:33:48;;;;;;;2.40;1.92;;;18.50;68.30;;;;;;5123209;28;20032;-43
2021/12/29 07:36:14;;;;;;;2.80;1.80;;;18.40;68.30;;;;;;5122911;27;20019;-41
2021/12/29 07:38:41;;;;;;;2.10;1.90;;;18.40;68.30;;;;;;5122314;28;20149;-41
2021/12/29 07:41:08;;;;;;;2.10;1.90;;;18.50;68.30;;;;;;5102967;28;20039;-43
2021/12/29 07:43:35;;;;;;;1.95;1.75;;;18.50;68.30;;;;;;5102777;28;20035;-43
2021/12/29 07:46:02;;;;;;;2.67;1.70;;;18.40;69.00;;;;;;5102602;28;20800;-42
2021/12/29 07:48:30;;;;;;;3.53;1.98;;;18.40;68.40;;;;;;5102710;28;20036;-42
2021/12/29 07:50:57;;;;;;;2.58;1.90;;;18.50;68.40;;;;;;5120543;28;20053;-42
2021/12/29 07:53:23;;;;;;;1.45;1.35;;;18.40;69.10;;;;;;5123042;28;20123;-42
2021/12/29 07:55:49;;;;;;;1.98;1.70;;;18.50;68.40;;;;;;5123088;28;20024;-42
2021/12/29 07:58:15;;;;;;;1.55;1.45;;;18.50;68.40;;;;;;5123160;28;20024;-43
2021/12/29 08:00:43;;;;;;;2.20;1.63;;;18.40;68.40;;;;;;5122665;28;20023;-42
2021/12/29 08:03:11;;;;;;;1.70;1.60;;;18.40;68.30;;;;;;5122876;28;20032;-42
2021/12/29 08:05:38;;;;;;;2.42;1.80;;;18.50;68.40;;;;;;5122774;28;20015;-43
2021/12/29 08:08:05;;;;;;;2.40;1.90;;;18.40;68.40;;;;;;5122995;28;20089;-41
2021/12/29 08:10:35;;;;;;;2.60;1.70;;;18.40;68.40;;;;;;5116359;28;20472;-41
2021/12/29 08:13:03;;;;;;;2.00;1.80;;;18.40;68.40;;;;;;5123103;28;20032;-42
2021/12/29 08:15:32;;;;;;;2.10;1.75;;;18.50;68.50;;;;;;5122398;28;20484;-42
2021/12/29 08:17:58;;;;;;;1.88;1.60;;;18.50;68.50;;;;;;5122879;28;20435;-44
2021/12/29 08:20:25;;;;;;;1.85;1.60;;;18.50;68.50;;;;;;5122874;28;20034;-41
2021/12/29 08:22:52;;;;;;;2.25;1.75;;;18.50;68.50;;;;;;5122893;28;20480;-42
2021/12/29 08:25:18;;;;;;;2.08;1.80;;;18.50;68.50;;;;;;5123060;28;20034;-42
2021/12/29 08:27:44;;;;;;;1.53;1.43;;;18.40;68.50;;;;;;5122524;28;20043;-42
2021/12/29 08:30:11;;;;;;;2.15;1.77;;;18.40;68.50;;;;;;5122817;28;20604;-42
2021/12/29 08:32:37;;;;;;;1.93;1.73;;;18.50;68.40;;;;;;5122610;28;20042;-44
2021/12/29 08:35:04;;;;;;;2.10;1.77;;;18.40;68.40;;;;;;5122854;28;20268;-42
2021/12/29 08:37:30;;;;;;;2.10;1.67;;;18.50;68.50;;;;;;5122355;28;20043;-42
2021/12/29 08:39:56;;;;;;;2.05;1.67;;;18.50;68.50;;;;;;5111735;27;20036;-42
2021/12/29 08:42:23;;;;;;;2.42;1.60;;;18.40;68.40;;;;;;5106336;28;20024;-43
2021/12/29 08:44:49;;;;;;;2.05;1.80;;;18.50;68.50;;;;;;5106209;28;20054;-43
2021/12/29 08:47:15;;;;;;;1.70;1.55;;;18.50;68.40;;;;;;5105489;28;20024;-42
2021/12/29 08:49:42;;;;;;;1.60;1.50;;;18.40;68.40;;;;;;5113414;28;20071;-42
2021/12/29 08:52:08;;;;;;;1.93;1.73;;;18.50;68.40;;;;;;5126457;28;20077;-42
2021/12/29 08:54:34;;;;;;;1.77;1.60;;;18.40;68.40;;;;;;5126472;28;20027;-41
2021/12/29 08:57:01;;;;;;;1.95;1.65;;;18.50;68.50;;;;;;5126255;28;20046;-42
2021/12/29 08:59:27;;;;;;;2.72;1.80;;;18.40;68.50;;;;;;5126647;28;20448;-43
2021/12/29 09:01:53;;;;;;;2.15;1.60;;;18.50;68.60;;;;;;5125961;28;20508;-42
2021/12/29 09:04:20;;;;;;;1.77;1.67;;;18.40;68.60;;;;;;5125966;28;20019;-42
2021/12/29 09:06:46;;;;;;;1.58;1.48;;;18.50;68.70;;;;;;5126112;28;20023;-43
2021/12/29 09:09:12;;;;;;;2.10;1.90;;;18.40;68.60;;;;;;5119916;28;20739;-42
2021/12/29 09:11:39;;;;;;;2.03;1.75;;;18.40;68.60;;;;;;5118221;28;20039;-42
2021/12/29 09:14:06;;;;;;;2.10;1.90;;;18.40;68.60;;;;;;5126287;28;20034;-42
2021/12/29 09:16:32;;;;;;;2.00;1.60;;;18.50;68.70;;;;;;5125578;27;20036;-42
2021/12/29 09:18:58;;;;;;;2.10;1.90;;;18.50;68.70;;;;;;5125774;28;20035;-42
2021/12/29 09:21:26;;;;;;;1.75;1.65;;;18.40;68.60;;;;;;5126136;28;20019;-42
2021/12/29 09:23:53;;;;;;;1.92;1.73;;;18.50;68.60;;;;;;5125852;28;20035;-42
2021/12/29 09:26:19;;;;;;;2.00;1.80;;;18.40;68.50;;;;;;5126051;28;20032;-42
2021/12/29 09:28:46;;;;;;;1.52;1.42;;;18.50;68.50;;;;;;5125681;28;20118;-42
2021/12/29 09:31:14;;;;;;;1.60;1.50;;;18.50;68.60;;;;;;5125758;28;20081;-41
2021/12/29 09:33:40;;;;;;;;;;;18.50;68.60;;;;;;5126140;28;20035;-42
2021/12/29 09:36:06;;;;;;;2.03;1.67;;;18.40;68.50;;;;;;5125726;28;19925;-42
2021/12/29 09:38:36;;;;;;;1.90;1.70;;;18.40;68.40;;;;;;5124818;28;20024;-43
2021/12/29 09:41:03;;;;;;;2.58;1.60;;;18.50;68.50;;;;;;5137049;27;20040;-42
2021/12/29 09:43:29;;;;;;;1.77;1.67;;;18.50;68.70;;;;;;5117792;28;20024;-42
2021/12/29 09:45:56;;;;;;;1.88;1.70;;;18.40;68.60;;;;;;5125460;28;20032;-42
2021/12/29 09:48:22;;;;;;;1.83;1.50;;;18.50;68.70;;;;;;5125013;28;20069;-42
2021/12/29 09:50:48;;;;;;;2.00;1.70;;;18.40;68.70;;;;;;5125062;28;20076;-42
2021/12/29 09:53:14;;;;;;;2.15;1.80;;;18.50;68.70;;;;;;5125190;28;20047;-42
2021/12/29 09:55:44;;;;;;;1.90;1.70;;;18.40;68.60;;;;;;5125055;28;20054;-42
2021/12/29 09:58:10;;;;;;;1.40;1.30;;;18.50;68.70;;;;;;5125339;28;20058;-42
2021/12/29 10:00:41;;;;;;;1.38;1.27;;;18.40;68.70;;;;;;5125242;28;20023;-44
2021/12/29 10:03:08;;;;;;;1.45;1.35;;;18.40;68.60;;;;;;5125145;28;20031;-42
2021/12/29 10:05:35;;;;;;;1.58;1.42;;;18.50;68.70;;;;;;5125329;28;20034;-42
2021/12/29 10:08:10;;;;;;;1.48;1.38;;;18.40;68.70;;;;;;5124753;28;20061;-42
2021/12/29 10:10:38;;;;;;;1.50;1.40;;;18.40;68.70;;;;;;5124587;27;20027;-42
2021/12/29 10:13:05;;;;;;;1.35;1.25;;;18.50;68.70;;;;;;5125100;28;20027;-42
2021/12/29 10:15:34;;;;;;;1.50;1.40;;;18.50;69.40;;;;;;5125202;28;20042;-42
2021/12/29 10:18:04;;;;;;;1.95;1.58;;;18.40;68.60;;;;;;5124262;28;20024;-44
2021/12/29 10:20:30;;;;;;;1.67;1.40;;;18.50;68.70;;;;;;5124691;28;20392;-42
2021/12/29 10:22:57;;;;;;;2.08;1.48;;;18.40;68.60;;;;;;5124848;28;20034;-42
2021/12/29 10:25:24;;;;;;;1.98;1.77;;;18.40;68.60;;;;;;5124732;28;20020;-41
2021/12/29 10:27:51;;;;;;;1.60;1.50;;;18.40;68.60;;;;;;5124713;28;20043;-42
2021/12/29 10:30:18;;;;;;;;;;;18.40;68.60;;;;;;5123919;28;20109;-42
2021/12/29 10:32:45;;;;;;;2.08;1.65;;;18.40;68.60;;;;;;5124446;28;20403;-42
2021/12/29 10:35:26;;;;;;;2.43;1.40;;;18.40;68.60;;;;;;5124740;28;20027;-42
2021/12/29 10:37:52;;;;;;;1.85;1.60;;;18.40;68.70;;;;;;5124299;28;20753;-42
2021/12/29 10:40:31;;;;;;;2.00;1.60;;;18.40;68.70;;;;;;5124508;28;20050;-41
2021/12/29 10:42:59;;;;;;;2.00;1.70;;;18.50;68.70;;;;;;5124267;28;20107;-43
2021/12/29 10:45:32;;;;;;;2.00;1.58;;;18.40;68.70;;;;;;5124672;28;20024;-42
2021/12/29 10:47:59;;;;;;;1.80;1.70;;;18.40;68.80;;;;;;5123907;28;20043;-42
2021/12/29 10:50:27;;;;;;;1.95;1.60;;;18.40;68.70;;;;;;5157564;27;20020;-42
2021/12/29 10:52:55;;;;;;;1.75;1.65;;;18.40;68.80;;;;;;5124154;27;20066;-42
2021/12/29 10:55:31;;;;;;;2.38;1.90;;;18.50;68.80;;;;;;5124006;28;20026;-42
2021/12/29 10:58:09;;;;;;;1.60;1.48;;;18.40;68.80;;;;;;5123928;28;20027;-41
2021/12/29 11:00:37;;;;;;;1.67;1.40;;;18.50;68.90;;;;;;5124320;28;20024;-42
2021/12/29 11:03:19;;;;;;;1.65;1.55;;;18.40;68.80;;;;;;5122989;28;20024;-42
2021/12/29 11:05:48;;;;;;;1.60;1.50;;;18.40;68.80;;;;;;5124252;28;20027;-43
2021/12/29 11:08:15;;;;;;;1.65;1.35;;;18.50;68.80;;;;;;5124036;28;20042;-45
2021/12/29 11:10:43;;;;;;;1.50;1.40;;;18.50;68.80;;;;;;5105972;28;20048;-42
2021/12/29 11:13:09;;;;;;;1.55;1.45;;;18.50;68.80;;;;;;5103633;28;20032;-42
2021/12/29 11:15:41;;;;;;;1.80;1.65;;;18.40;68.80;;;;;;5103568;28;20028;-43
2021/12/29 11:18:12;;;;;;;1.83;1.52;;;18.50;68.80;;;;;;5103002;28;20031;-43
2021/12/29 11:20:39;;;;;;;1.65;1.55;;;18.50;68.80;;;;;;5119006;28;20070;-42
2021/12/29 11:23:06;;;;;;;2.40;1.50;;;18.50;69.00;;;;;;5124133;28;20059;-42
2021/12/29 11:25:32;;;;;;;;;;;18.50;68.90;;;;;;5124367;28;20038;-42
2021/12/29 11:27:58;;;;;;;1.70;1.60;;;18.50;68.90;;;;;;5123723;28;19916;-42
2021/12/29 11:30:24;;;;;;;2.00;1.58;;;18.50;68.90;;;;;;5123740;28;20028;-42
2021/12/29 11:32:50;;;;;;;1.75;1.65;;;18.50;69.00;;;;;;5123392;28;20034;-42
2021/12/29 11:35:19;;;;;;;1.73;1.42;;;18.50;69.00;;;;;;5123685;28;20024;-43
2021/12/29 11:37:47;;;;;;;1.50;1.40;;;18.50;69.00;;;;;;5123786;28;20020;-42
2021/12/29 11:40:22;;;;;;;1.60;1.50;;;18.40;68.90;;;;;;5137956;27;20042;-42
2021/12/29 11:42:48;;;;;;;1.55;1.45;;;18.50;69.20;;;;;;5144316;27;20046;-43
2021/12/29 11:45:15;;;;;;;1.70;1.42;;;18.40;69.00;;;;;;5130232;27;20020;-41
2021/12/29 11:47:41;;;;;;;1.60;1.50;;;18.50;69.10;;;;;;5123225;28;20023;-42
2021/12/29 11:50:08;;;;;;;2.00;1.45;;;18.50;69.00;;;;;;5123373;28;20035;-42
2021/12/29 11:53:02;;;;;;;2.03;1.75;;;18.50;69.00;;;;;;5122033;28;20048;-43
2021/12/29 11:55:31;;;;;;;2.10;1.70;;;18.50;69.00;;;;;;5123713;28;20031;-43
2021/12/29 11:58:16;;;;;;;2.88;1.80;;;18.50;69.00;;;;;;5123375;28;20708;-45
2021/12/29 12:00:45;;;;;;;1.58;1.45;;;18.40;69.10;;;;;;5123390;28;20028;-42
2021/12/29 12:03:12;;;;;;;1.63;1.52;;;18.50;69.10;;;;;;5122860;28;20100;-45
2021/12/29 12:05:47;;;;;;;1.88;1.60;;;18.50;69.80;;;;;;5123451;28;20031;-42
2021/12/29 12:08:23;;;;;;;2.03;1.60;;;18.50;69.00;;;;;;5123362;28;20102;-42
2021/12/29 12:10:49;;;;;;;1.80;1.70;;;18.50;69.00;;;;;;5121946;28;20027;-42
2021/12/29 12:13:30;;;;;;;1.70;1.60;;;18.50;69.00;;;;;;5123469;28;20028;-42
2021/12/29 12:16:12;;;;;;;1.67;1.35;;;18.50;69.00;;;;;;5127660;28;20024;-44
2021/12/29 12:18:58;;;;;;;1.52;1.42;;;18.50;69.00;;;;;;5126807;28;20027;-42
2021/12/29 12:21:39;;;;;;;1.50;1.40;;;18.50;69.10;;;;;;5126677;28;20012;-42
2021/12/29 12:24:15;;;;;;;1.65;1.55;;;18.50;69.00;;;;;;5127546;28;20050;-42
2021/12/29 12:26:53;;;;;;;1.75;1.48;;;18.50;69.10;;;;;;5127425;28;20092;-44
2021/12/29 12:29:21;;;;;;;2.08;1.63;;;18.50;69.10;;;;;;5126501;28;20249;-42
2021/12/29 12:32:07;;;;;;;1.50;1.40;;;18.50;69.10;;;;;;5126769;28;20091;-41
2021/12/29 12:34:34;;;;;;;2.10;1.73;;;18.50;69.10;;;;;;5127141;28;20094;-42
2021/12/29 12:37:01;;;;;;;;;;;18.50;69.10;;;;;;5127355;28;20024;-41
2021/12/29 12:39:28;;;;;;;1.80;1.50;;;18.50;69.00;;;;;;5125326;28;19957;-42
2021/12/29 12:41:56;;;;;;;1.63;1.52;;;18.50;69.10;;;;;;5127168;28;20489;-41
2021/12/29 12:44:36;;;;;;;1.95;1.75;;;18.50;69.20;;;;;;5126753;27;20039;-41
2021/12/29 12:47:13;;;;;;;1.70;1.45;;;18.50;69.20;;;;;;5126557;28;20032;-42
2021/12/29 12:49:47;;;;;;;1.70;1.40;;;18.50;69.10;;;;;;5126748;28;20066;-41
2021/12/29 12:52:13;;;;;;;1.60;1.50;;;18.50;69.00;;;;;;5126598;28;20282;-41
2021/12/29 12:54:55;;;;;;;1.60;1.50;;;18.50;69.10;;;;;;5114626;28;20439;-41
2021/12/29 12:57:29;;;;;;;1.55;1.45;;;18.50;69.10;;;;;;5106116;28;20192;-41
2021/12/29 13:00:04;;;;;;;1.75;1.65;;;18.50;69.00;;;;;;5124058;28;20027;-41